Time;durP1;ratioP1;P1;durP2;ratioP2;P2;SDS_P1;SDS_P2;PMS_P1;PMS_P2;Temp;Humidity;BMP_temperature;BMP_pressure;BME280_temperature;BME280_humidity;BME280_pressure;Samples;Min_cycle;Max_cycle;Signal;HPM_P1;HPM_P2
2022/08/20 00:02:23;;;;;;;6.25;5.57;;;;;;;26.95;51.82;94275.09;5093311;28;20657;-80
2022/08/20 00:04:50;;;;;;;5.55;4.93;;;;;;;26.96;51.57;94268.78;5092878;28;20225;-80
2022/08/20 00:07:17;;;;;;;5.45;4.95;;;;;;;26.93;51.52;94274.53;5092981;28;20220;-79
2022/08/20 00:09:45;;;;;;;8.32;5.45;;;;;;;26.67;51.88;94244.66;5093050;28;20189;-80
2022/08/20 00:12:16;;;;;;;6.25;5.68;;;;;;;26.82;52.81;94276.28;5092986;28;20193;-80
2022/08/20 00:14:42;;;;;;;8.02;6.10;;;;;;;26.68;53.29;94282.94;5093192;28;20182;-81
2022/08/20 00:17:09;;;;;;;7.22;6.57;;;;;;;26.58;53.77;94288.91;5093055;28;20217;-81
2022/08/20 00:19:38;;;;;;;8.40;5.97;;;;;;;26.49;53.77;94293.78;5093097;28;20275;-81
2022/08/20 00:22:05;;;;;;;7.25;6.13;;;;;;;26.40;54.07;94284.75;5092673;28;20199;-81
2022/08/20 00:24:32;;;;;;;8.45;6.30;;;;;;;26.37;53.89;94285.22;5092794;28;20227;-81
2022/08/20 00:26:58;;;;;;;6.63;6.03;;;;;;;26.24;54.76;94275.91;5092937;28;20228;-80
2022/08/20 00:29:25;;;;;;;11.77;6.18;;;;;;;26.22;54.60;94285.06;5092689;28;20295;-80
2022/08/20 00:31:52;;;;;;;7.72;6.15;;;;;;;26.11;54.91;94278.91;5093157;28;20186;-81
2022/08/20 00:34:19;;;;;;;9.45;6.25;;;;;;;26.02;55.39;94268.06;5092362;28;20579;-81
2022/08/20 00:36:47;;;;;;;8.63;5.88;;;;;;;25.97;55.77;94285.56;5092546;28;20201;-80
2022/08/20 00:39:14;;;;;;;8.98;6.75;;;;;;;25.94;55.91;94289.44;5092658;28;20178;-80
2022/08/20 00:41:41;;;;;;;6.25;5.65;;;;;;;25.89;55.61;94285.97;5092771;28;20194;-79
2022/08/20 00:44:16;;;;;;;8.50;6.55;;;;;;;25.84;56.05;94288.53;5092528;28;20216;-81
2022/08/20 00:46:44;;;;;;;10.30;6.13;;;;;;;25.72;56.52;94289.38;5092266;28;20250;-80
2022/08/20 00:49:16;;;;;;;6.32;5.55;;;;;;;25.69;56.61;94284.66;5092476;28;20280;-80
2022/08/20 00:51:46;;;;;;;7.32;5.88;;;;;;;25.65;56.31;94277.53;5092453;28;20225;-80
2022/08/20 00:54:18;;;;;;;6.68;6.03;;;;;;;25.62;56.37;94284.03;5092286;28;20194;-80
2022/08/20 00:56:49;;;;;;;6.50;5.90;;;;;;;25.58;56.88;94276.91;5092291;28;20194;-80
2022/08/20 00:59:21;;;;;;;6.50;5.30;;;;;;;25.54;56.62;94268.72;5091979;28;20186;-80
2022/08/20 01:01:48;;;;;;;7.38;6.15;;;;;;;25.51;56.74;94269.19;5091215;28;20204;-80
2022/08/20 01:04:15;;;;;;;6.15;5.65;;;;;;;25.45;57.02;94263.09;5091572;28;20240;-80
2022/08/20 01:06:43;;;;;;;6.13;5.35;;;;;;;25.40;57.16;94252.56;5091379;28;20205;-81
2022/08/20 01:09:10;;;;;;;8.32;5.68;;;;;;;25.26;57.26;94236.41;5091717;28;20202;-83
2022/08/20 01:11:39;;;;;;;9.75;5.88;;;;;;;25.17;57.40;94227.38;5091552;28;20197;-80
2022/08/20 01:14:21;;;;;;;7.68;5.70;;;;;;;25.24;57.92;94241.06;5091755;28;20186;-83
2022/08/20 01:16:50;;;;;;;6.78;6.18;;;;;;;25.16;57.85;94228.38;5091539;28;20192;-81
2022/08/20 01:19:21;;;;;;;7.10;5.68;;;;;;;25.21;58.28;94251.22;5091719;28;20182;-80
2022/08/20 01:21:48;;;;;;;7.32;6.53;;;;;;;25.18;58.72;94254.34;5091199;28;20186;-82
2022/08/20 01:24:21;;;;;;;8.80;5.95;;;;;;;25.14;58.31;94240.94;5091519;28;20208;-82
2022/08/20 01:26:49;;;;;;;8.48;6.15;;;;;;;24.92;58.67;94225.13;5091132;28;20217;-80
2022/08/20 01:29:19;;;;;;;7.47;6.53;;;;;;;25.08;58.60;94249.72;5091505;28;20488;-79
2022/08/20 01:31:46;;;;;;;7.68;6.35;;;;;;;25.03;58.85;94250.41;5091497;28;20192;-82
2022/08/20 01:34:16;;;;;;;6.22;5.53;;;;;;;24.81;58.84;94225.19;5091908;28;20194;-81
2022/08/20 01:36:46;;;;;;;10.50;6.53;;;;;;;24.95;59.22;94242.16;5091245;28;20217;-80
2022/08/20 01:39:16;;;;;;;10.52;6.13;;;;;;;24.87;59.34;94234.69;5091161;28;20194;-81
2022/08/20 01:42:00;;;;;;;6.00;5.43;;;;;;;24.80;59.71;94227.03;5090859;28;20200;-81
2022/08/20 01:44:28;;;;;;;7.57;6.35;;;;;;;24.77;59.42;94228.28;5091412;28;20259;-82
2022/08/20 01:46:56;;;;;;;6.85;6.03;;;;;;;24.76;59.33;94220.69;5091049;28;20282;-81
2022/08/20 01:49:26;;;;;;;6.75;6.03;;;;;;;24.48;59.88;94187.53;5091110;28;20192;-81
2022/08/20 01:51:54;;;;;;;8.48;5.63;;;;;;;24.70;59.71;94229.47;5091179;28;20328;-82
2022/08/20 01:54:21;;;;;;;6.82;6.07;;;;;;;24.66;59.96;94234.38;5091123;28;20193;-81
2022/08/20 01:56:57;;;;;;;6.05;5.45;;;;;;;24.67;60.30;94232.56;5091064;28;20188;-82
2022/08/20 01:59:24;;;;;;;7.18;5.32;;;;;;;24.61;60.02;94221.25;5090714;28;20200;-80
2022/08/20 02:01:51;;;;;;;6.07;5.47;;;;;;;24.65;60.08;94235.41;5090890;28;20197;-81
2022/08/20 02:04:18;;;;;;;6.88;6.25;;;;;;;24.66;60.08;94229.16;5090721;28;20225;-81
2022/08/20 02:06:49;;;;;;;5.90;5.40;;;;;;;24.64;60.03;94230.41;5090532;28;20205;-81
2022/08/20 02:09:16;;;;;;;10.57;6.35;;;;;;;24.65;60.37;94229.38;5090481;28;20259;-83
2022/08/20 02:11:45;;;;;;;6.28;5.63;;;;;;;24.57;60.37;94229.75;5090412;28;20197;-82
2022/08/20 02:14:15;;;;;;;7.50;5.65;;;;;;;24.51;60.76;94234.13;5090517;28;20186;-82
2022/08/20 02:16:46;;;;;;;7.78;5.60;;;;;;;24.39;61.02;94210.63;5090511;28;20189;-80
2022/08/20 02:19:16;;;;;;;9.75;6.30;;;;;;;24.45;61.00;94228.00;5090826;28;20671;-81
2022/08/20 02:21:45;;;;;;;6.22;5.65;;;;;;;24.42;61.37;94225.84;5090253;28;20197;-82
2022/08/20 02:24:13;;;;;;;11.27;6.60;;;;;;;24.37;61.53;94228.41;5090437;28;20201;-81
2022/08/20 02:26:40;;;;;;;6.07;5.47;;;;;;;24.38;61.56;94221.34;5090118;28;20603;-80
2022/08/20 02:29:09;;;;;;;7.20;6.40;;;;;;;24.35;61.61;94227.00;5090276;28;20189;-80
2022/08/20 02:31:39;;;;;;;7.35;6.28;;;;;;;24.23;61.77;94214.00;5089991;28;20196;-81
2022/08/20 02:34:08;;;;;;;8.63;6.22;;;;;;;24.16;61.76;94203.69;5090268;28;20190;-81
2022/08/20 02:36:36;;;;;;;7.90;6.30;;;;;;;24.24;62.03;94228.66;5089939;28;20186;-81
2022/08/20 02:39:04;;;;;;;9.30;6.40;;;;;;;24.12;62.45;94218.22;5090071;28;20190;-81
2022/08/20 02:41:30;;;;;;;9.20;6.10;;;;;;;24.24;61.94;94229.44;5089984;28;20190;-80
2022/08/20 02:43:57;;;;;;;7.68;6.85;;;;;;;24.18;62.13;94230.38;5090074;28;20197;-81
2022/08/20 02:46:24;;;;;;;10.38;6.22;;;;;;;24.23;61.83;94227.84;5090236;28;20188;-81
2022/08/20 02:48:52;;;;;;;8.35;6.30;;;;;;;24.21;62.49;94235.13;5090371;28;20197;-81
2022/08/20 02:51:19;;;;;;;7.03;6.18;;;;;;;24.14;62.42;94236.31;5089845;28;20692;-80
2022/08/20 02:53:46;;;;;;;6.78;6.18;;;;;;;24.08;62.56;94238.00;5089920;28;20276;-80
2022/08/20 02:56:13;;;;;;;6.82;6.20;;;;;;;24.04;62.37;94227.22;5089806;28;20301;-80
2022/08/20 02:58:41;;;;;;;9.52;5.88;;;;;;;24.05;62.56;94233.28;5089964;28;20189;-80
2022/08/20 03:01:12;;;;;;;9.00;6.28;;;;;;;23.68;62.38;94177.97;5090034;28;20212;-80
2022/08/20 03:03:39;;;;;;;10.50;6.20;;;;;;;24.05;62.51;94243.72;5089328;28;20678;-81
2022/08/20 03:06:09;;;;;;;7.45;6.40;;;;;;;24.01;62.50;94227.72;5089620;28;20221;-81
2022/08/20 03:08:36;;;;;;;10.23;6.63;;;;;;;24.04;62.78;94250.75;5089351;28;20685;-81
2022/08/20 03:11:05;;;;;;;7.60;6.78;;;;;;;23.99;62.69;94229.75;5089572;28;20194;-82
2022/08/20 03:13:31;;;;;;;6.65;5.90;;;;;;;24.01;62.64;94239.97;5089355;28;20190;-80
2022/08/20 03:16:01;;;;;;;8.23;6.90;;;;;;;23.96;63.06;94240.69;5089532;28;20201;-81
2022/08/20 03:18:29;;;;;;;12.02;6.53;;;;;;;23.93;63.06;94237.72;5089159;28;20272;-80
2022/08/20 03:20:56;;;;;;;6.22;5.65;;;;;;;23.88;62.80;94238.44;5089314;28;20185;-81
2022/08/20 03:23:25;;;;;;;7.30;6.05;;;;;;;23.86;63.16;94231.84;5089318;28;20201;-80
2022/08/20 03:25:51;;;;;;;11.40;6.80;;;;;;;23.79;63.32;94231.94;5089049;28;20564;-81
2022/08/20 03:28:19;;;;;;;8.95;5.93;;;;;;;23.85;63.47;94248.53;5088975;28;20212;-82
2022/08/20 03:30:46;;;;;;;8.85;6.30;;;;;;;23.83;63.31;94248.75;5089493;28;20194;-82
2022/08/20 03:33:12;;;;;;;7.43;6.28;;;;;;;23.82;63.50;94247.16;5089311;28;20197;-82
2022/08/20 03:35:39;;;;;;;8.70;7.18;;;;;;;23.74;63.80;94245.69;5089362;28;20185;-82
2022/08/20 03:38:08;;;;;;;7.95;6.43;;;;;;;23.71;63.93;94248.78;5089480;28;20194;-81
2022/08/20 03:40:37;;;;;;;6.78;6.18;;;;;;;23.61;63.68;94234.69;5089242;28;20197;-82
2022/08/20 03:43:05;;;;;;;9.95;6.40;;;;;;;23.75;63.70;94249.13;5089040;28;20549;-81
2022/08/20 03:45:32;;;;;;;8.30;6.30;;;;;;;23.75;63.84;94254.34;5088596;28;20194;-81
2022/08/20 03:48:00;;;;;;;7.25;6.18;;;;;;;23.65;63.87;94235.84;5089285;28;20225;-81
2022/08/20 03:50:30;;;;;;;6.65;6.03;;;;;;;23.75;63.59;94254.34;5089598;28;20805;-80
2022/08/20 03:52:59;;;;;;;12.13;7.18;;;;;;;23.53;63.75;94230.59;5089313;28;20725;-80
2022/08/20 03:55:28;;;;;;;9.98;6.30;;;;;;;23.67;64.03;94265.94;5088859;28;20795;-80
2022/08/20 03:57:59;;;;;;;7.20;6.50;;;;;;;23.78;64.09;94264.31;5089275;28;20193;-82
2022/08/20 04:00:30;;;;;;;7.90;6.10;;;;;;;23.76;63.75;94264.56;5088997;28;20285;-81
2022/08/20 04:02:57;;;;;;;10.68;6.28;;;;;;;23.74;63.86;94271.03;5089340;28;20669;-81
2022/08/20 04:05:24;;;;;;;9.82;6.15;;;;;;;23.72;64.01;94262.63;5088898;28;20225;-81
2022/08/20 04:07:52;;;;;;;12.95;6.45;;;;;;;23.73;63.97;94269.44;5089048;28;20248;-81
2022/08/20 04:10:19;;;;;;;6.32;5.78;;;;;;;23.73;63.80;94272.06;5088672;28;20190;-81
2022/08/20 04:12:46;;;;;;;14.32;6.15;;;;;;;23.73;63.56;94270.22;5089166;28;20619;-80
2022/08/20 04:15:16;;;;;;;8.10;6.53;;;;;;;23.64;63.73;94255.13;5088693;28;20609;-81
2022/08/20 04:17:46;;;;;;;10.27;6.13;;;;;;;23.70;63.73;94262.06;5089002;28;20182;-81
2022/08/20 04:20:22;;;;;;;9.13;6.10;;;;;;;23.75;63.85;94275.25;5089100;28;20576;-82
2022/08/20 04:22:50;;;;;;;8.23;6.40;;;;;;;23.50;64.13;94228.47;5088674;28;20193;-81
2022/08/20 04:25:17;;;;;;;9.05;6.38;;;;;;;23.78;64.01;94269.53;5088669;28;20192;-82
2022/08/20 04:27:45;;;;;;;9.55;7.53;;;;;;;23.86;63.73;94271.00;5088565;28;20225;-81
2022/08/20 04:30:14;;;;;;;9.40;7.20;;;;;;;23.93;63.21;94279.53;5088770;28;20221;-82
2022/08/20 04:32:42;;;;;;;8.68;6.70;;;;;;;23.89;63.12;94241.84;5088887;28;20641;-80
2022/08/20 04:35:13;;;;;;;10.55;6.70;;;;;;;23.98;63.35;94251.69;5088940;28;20197;-82
2022/08/20 04:37:40;;;;;;;7.93;6.43;;;;;;;24.09;63.38;94273.56;5090933;28;20178;-82
2022/08/20 04:42:53;;;;;;;9.70;6.65;;;;;;;24.26;63.25;94278.84;5092571;28;20271;-82
2022/08/20 04:45:22;;;;;;;10.65;6.68;;;;;;;24.35;63.51;94279.28;5092237;28;20208;-79
2022/08/20 04:47:49;;;;;;;7.88;7.05;;;;;;;24.42;63.68;94270.31;5092744;28;20589;-79
2022/08/20 04:50:18;;;;;;;11.98;7.38;;;;;;;24.57;63.36;94279.44;5091807;28;20193;-82
2022/08/20 04:52:46;;;;;;;8.32;7.00;;;;;;;24.70;63.02;94279.19;5092384;28;20185;-82
2022/08/20 04:55:13;;;;;;;10.23;6.75;;;;;;;24.85;62.50;94276.81;5092356;28;20197;-80
2022/08/20 04:57:40;;;;;;;8.60;6.57;;;;;;;25.03;61.89;94273.94;5092116;28;20775;-82
2022/08/20 05:00:10;;;;;;;8.55;6.80;;;;;;;25.17;62.05;94273.66;5092226;28;20212;-80
2022/08/20 05:02:38;;;;;;;7.75;7.00;;;;;;;25.31;61.90;94268.91;5091815;28;20193;-82
2022/08/20 05:05:07;;;;;;;10.70;6.40;;;;;;;25.39;61.08;94265.88;5092384;28;20217;-81
2022/08/20 05:07:39;;;;;;;11.35;6.70;;;;;;;25.55;60.41;94280.78;5091582;28;20740;-82
2022/08/20 05:10:08;;;;;;;9.63;6.90;;;;;;;25.63;59.97;94276.97;5091887;28;20626;-79
2022/08/20 05:12:34;;;;;;;12.73;7.25;;;;;;;25.61;59.76;94271.19;5091651;28;20197;-80
2022/08/20 05:15:01;;;;;;;7.82;6.88;;;;;;;25.85;59.59;94279.63;5091994;28;20200;-80
2022/08/20 05:17:28;;;;;;;9.85;7.22;;;;;;;25.91;58.73;94281.31;5092055;28;20197;-80
2022/08/20 05:19:58;;;;;;;7.55;6.80;;;;;;;25.98;58.17;94280.06;5092108;28;20585;-82
2022/08/20 05:22:26;;;;;;;10.43;6.95;;;;;;;26.05;58.55;94284.34;5091684;28;20255;-80
2022/08/20 05:24:54;;;;;;;8.48;7.05;;;;;;;26.11;58.83;94276.28;5091817;28;20211;-80
2022/08/20 05:27:23;;;;;;;10.38;6.40;;;;;;;26.26;58.44;94270.44;5091088;28;20202;-80
2022/08/20 05:29:52;;;;;;;7.93;6.72;;;;;;;26.41;57.82;94262.72;5091631;28;20186;-80
2022/08/20 05:32:19;;;;;;;7.55;6.75;;;;;;;26.61;57.90;94267.44;5091343;28;20209;-80
2022/08/20 05:34:45;;;;;;;15.15;7.20;;;;;;;26.72;56.52;94261.22;5091414;28;20217;-80
2022/08/20 05:37:14;;;;;;;9.05;6.25;;;;;;;26.88;56.05;94261.38;5091008;28;20186;-81
2022/08/20 05:39:41;;;;;;;10.20;7.30;;;;;;;26.94;55.98;94261.19;5091269;28;20217;-80
2022/08/20 05:42:08;;;;;;;8.40;6.60;;;;;;;27.08;56.11;94252.88;5091281;28;20189;-80
2022/08/20 05:44:36;;;;;;;11.68;7.32;;;;;;;27.19;55.36;94265.84;5091560;28;20186;-80
2022/08/20 05:47:04;;;;;;;14.88;7.65;;;;;;;27.29;55.47;94274.81;5091225;28;20616;-80
2022/08/20 05:49:32;;;;;;;9.23;6.60;;;;;;;27.16;55.39;94242.72;5090291;28;20201;-79
2022/08/20 05:51:59;;;;;;;8.95;7.35;;;;;;;27.43;56.03;94274.16;5091232;28;20685;-80
2022/08/20 05:54:28;;;;;;;9.80;8.15;;;;;;;27.58;55.33;94265.56;5090810;28;20200;-80
2022/08/20 05:56:56;;;;;;;8.60;7.13;;;;;;;27.78;55.53;94264.94;5091362;28;20197;-81
2022/08/20 05:59:23;;;;;;;15.07;8.52;;;;;;;27.84;54.76;94256.00;5090926;28;20289;-81
2022/08/20 06:01:51;;;;;;;18.88;8.30;;;;;;;27.75;54.07;94258.34;5090966;28;20542;-80
2022/08/20 06:04:23;;;;;;;11.48;8.13;;;;;;;27.72;54.85;94223.84;5090510;28;20221;-83
2022/08/20 06:06:51;;;;;;;9.15;7.40;;;;;;;27.99;54.57;94252.69;5090661;28;20194;-80
2022/08/20 06:09:21;;;;;;;9.52;8.63;;;;;;;28.14;54.37;94260.59;5090229;28;20217;-81
2022/08/20 06:11:49;;;;;;;8.52;6.88;;;;;;;28.16;54.60;94220.94;5090623;28;20178;-81
2022/08/20 06:14:16;;;;;;;12.02;7.53;;;;;;;28.40;53.42;94258.09;5090580;28;20673;-81
2022/08/20 06:16:43;;;;;;;11.77;8.50;;;;;;;28.51;53.40;94259.72;5090204;28;20563;-80
2022/08/20 06:19:11;;;;;;;10.00;7.93;;;;;;;28.65;52.89;94252.09;5090153;28;20645;-81
2022/08/20 06:21:38;;;;;;;12.55;7.65;;;;;;;28.75;52.82;94258.16;5090753;28;20189;-81
2022/08/20 06:24:06;;;;;;;11.95;7.47;;;;;;;28.85;51.99;94256.59;5090052;28;20204;-81
2022/08/20 06:26:34;;;;;;;8.23;7.35;;;;;;;28.86;51.72;94261.59;5090424;28;20283;-81
2022/08/20 06:29:04;;;;;;;14.60;7.53;;;;;;;28.78;52.46;94256.06;5089753;28;20648;-81
2022/08/20 06:31:33;;;;;;;10.77;7.88;;;;;;;28.88;51.92;94250.78;5090643;28;20205;-80
2022/08/20 06:34:00;;;;;;;9.45;7.20;;;;;;;29.02;52.09;94254.53;5090307;28;20197;-83
2022/08/20 06:36:27;;;;;;;9.85;7.15;;;;;;;29.30;51.52;94257.66;5090697;28;20209;-82
2022/08/20 06:38:57;;;;;;;11.70;6.82;;;;;;;29.50;51.40;94250.53;5090037;28;20185;-82
2022/08/20 06:41:24;;;;;;;7.25;6.43;;;;;;;29.85;50.05;94269.97;5090404;28;20189;-80
2022/08/20 06:43:52;;;;;;;10.23;6.45;;;;;;;30.07;49.57;94259.09;5090159;28;20258;-83
2022/08/20 06:46:22;;;;;;;12.75;6.68;;;;;;;30.17;49.57;94260.91;5090200;28;20181;-81
2022/08/20 06:48:50;;;;;;;9.88;6.65;;;;;;;30.33;49.23;94249.25;5089995;28;20252;-80
2022/08/20 06:51:17;;;;;;;8.85;6.68;;;;;;;30.62;49.19;94245.91;5089784;28;20193;-80
2022/08/20 06:53:44;;;;;;;7.10;6.40;;;;;;;30.84;49.06;94256.88;5090202;28;20201;-81
2022/08/20 06:56:11;;;;;;;10.45;7.35;;;;;;;31.11;47.38;94253.75;5090059;28;20196;-80
2022/08/20 06:58:38;;;;;;;7.00;6.30;;;;;;;31.22;47.21;94244.69;5089903;28;20291;-81
2022/08/20 07:01:05;;;;;;;7.35;6.70;;;;;;;31.41;47.13;94249.31;5088851;28;20193;-81
2022/08/20 07:03:34;;;;;;;8.95;6.57;;;;;;;31.50;46.21;94228.34;5090393;28;20182;-81
2022/08/20 07:06:01;;;;;;;12.63;6.88;;;;;;;31.73;46.22;94244.22;5089668;28;20221;-80
2022/08/20 07:08:27;;;;;;;10.70;6.85;;;;;;;31.87;45.68;94238.28;5089594;28;20218;-81
2022/08/20 07:10:54;;;;;;;12.52;7.07;;;;;;;31.85;46.12;94233.28;5089840;28;20194;-80
2022/08/20 07:13:21;;;;;;;11.50;6.45;;;;;;;32.02;45.41;94227.53;5089853;28;20185;-81
2022/08/20 07:15:48;;;;;;;7.45;6.75;;;;;;;32.10;45.54;94231.41;5089724;28;20188;-80
2022/08/20 07:18:16;;;;;;;11.93;7.30;;;;;;;32.11;45.94;94232.97;5089206;28;20251;-81
2022/08/20 07:20:45;;;;;;;14.80;7.13;;;;;;;32.13;45.39;94226.34;5089722;28;20197;-81
2022/08/20 07:23:11;;;;;;;8.20;6.68;;;;;;;32.32;44.65;94231.63;5089281;28;20196;-81
2022/08/20 07:25:40;;;;;;;10.98;6.32;;;;;;;32.35;44.41;94233.72;5091004;28;20178;-80
2022/08/20 07:28:12;;;;;;;9.68;6.50;;;;;;;32.44;44.50;94224.09;5089337;28;20225;-81
2022/08/20 07:33:25;;;;;;;9.27;6.93;;;;;;;32.61;44.62;94230.75;5089508;28;20247;-80
2022/08/20 07:35:55;;;;;;;12.63;6.90;;;;;;;32.74;44.02;94230.03;5090215;28;20193;-81
2022/08/20 07:38:24;;;;;;;11.95;6.55;;;;;;;32.84;43.46;94215.84;5089829;28;20197;-80
2022/08/20 07:40:51;;;;;;;12.35;7.47;;;;;;;32.93;43.42;94225.50;5089610;28;20188;-80
2022/08/20 07:43:20;;;;;;;10.68;6.97;;;;;;;32.99;43.52;94228.88;5090127;28;20182;-81
2022/08/20 07:45:47;;;;;;;10.93;7.15;;;;;;;32.58;43.61;94228.66;5089292;28;20182;-81
2022/08/20 07:48:14;;;;;;;9.05;6.72;;;;;;;32.53;44.32;94226.88;5089017;28;20233;-80
2022/08/20 07:50:41;;;;;;;15.57;6.97;;;;;;;32.70;43.57;94221.09;5089583;28;20197;-80
2022/08/20 07:53:10;;;;;;;10.32;7.00;;;;;;;32.68;43.94;94210.75;5090149;28;20563;-80
2022/08/20 07:55:38;;;;;;;8.88;6.90;;;;;;;32.79;43.28;94216.69;5090421;28;20262;-81
2022/08/20 07:58:09;;;;;;;7.63;6.90;;;;;;;32.94;43.03;94224.41;5089332;28;20199;-80
2022/08/20 08:00:36;;;;;;;10.07;7.13;;;;;;;33.04;43.28;94228.00;5089546;28;20185;-80
2022/08/20 08:03:03;;;;;;;11.10;6.22;;;;;;;33.07;43.43;94214.94;5088944;28;20189;-80
2022/08/20 08:05:31;;;;;;;10.80;6.57;;;;;;;33.34;43.17;94235.44;5088909;28;20274;-80
2022/08/20 08:07:58;;;;;;;9.20;7.22;;;;;;;33.50;42.36;94233.31;5088762;28;20255;-80
2022/08/20 08:10:27;;;;;;;9.20;6.60;;;;;;;33.58;42.36;94229.22;5089027;28;20201;-80
2022/08/20 08:13:02;;;;;;;7.85;6.70;;;;;;;33.64;42.66;94228.06;5092069;28;20190;-80
2022/08/20 08:15:33;;;;;;;7.32;6.60;;;;;;;33.76;42.52;94230.97;5093041;28;20185;-80
2022/08/20 08:18:06;;;;;;;11.13;7.28;;;;;;;33.88;42.04;94225.19;5092937;28;20185;-80
2022/08/20 08:20:36;;;;;;;9.70;7.07;;;;;;;33.89;41.49;94229.41;5092885;28;20665;-82
2022/08/20 08:23:03;;;;;;;7.32;6.40;;;;;;;33.95;40.87;94226.38;5092701;28;20587;-79
2022/08/20 08:25:32;;;;;;;8.77;7.40;;;;;;;33.89;41.11;94226.75;5093062;28;20190;-81
2022/08/20 08:28:01;;;;;;;9.25;7.00;;;;;;;33.90;40.72;94215.09;5092425;28;20302;-80
2022/08/20 08:30:30;;;;;;;9.25;6.55;;;;;;;33.99;40.94;94217.88;5092579;28;20657;-80
2022/08/20 08:35:45;;;;;;;8.60;6.60;;;;;;;34.13;40.89;94216.75;5092648;28;20247;-81
2022/08/20 08:38:12;;;;;;;8.10;6.28;;;;;;;34.19;40.62;94217.41;5092807;28;20190;-81
2022/08/20 08:40:41;;;;;;;7.72;6.75;;;;;;;33.97;40.33;94206.75;5092778;28;20186;-81
2022/08/20 08:43:10;;;;;;;7.88;7.18;;;;;;;33.99;40.87;94210.69;5092214;28;20246;-79
2022/08/20 08:45:44;;;;;;;10.07;6.97;;;;;;;34.05;40.91;94206.84;5092339;28;20193;-80
2022/08/20 08:48:16;;;;;;;7.00;6.30;;;;;;;34.07;40.72;94201.22;5092056;28;20314;-80
2022/08/20 08:50:51;;;;;;;8.50;6.78;;;;;;;33.90;41.19;94194.66;5092444;28;20182;-80
2022/08/20 08:53:22;;;;;;;9.65;6.18;;;;;;;33.97;41.21;94191.59;5092112;28;20185;-80
2022/08/20 08:55:50;;;;;;;14.77;6.97;;;;;;;34.01;40.71;94189.94;5092197;28;20196;-81
2022/08/20 08:58:17;;;;;;;6.78;6.18;;;;;;;34.09;40.51;94185.78;5091901;28;20190;-80
2022/08/20 09:00:45;;;;;;;8.48;7.15;;;;;;;34.08;40.71;94176.28;5091970;28;20190;-81
2022/08/20 09:03:20;;;;;;;10.32;7.10;;;;;;;34.21;40.68;94172.81;5092121;28;20678;-81
2022/08/20 09:05:50;;;;;;;9.02;7.25;;;;;;;34.27;40.15;94176.91;5092148;28;20231;-81
2022/08/20 09:08:23;;;;;;;9.80;7.25;;;;;;;34.26;40.67;94169.25;5091471;28;20212;-81
2022/08/20 09:10:51;;;;;;;7.78;6.85;;;;;;;34.30;40.76;94170.22;5092454;28;20653;-81
2022/08/20 09:13:18;;;;;;;8.32;7.22;;;;;;;34.16;40.54;94127.78;5091761;28;20785;-81
2022/08/20 09:15:45;;;;;;;7.75;7.05;;;;;;;34.50;40.68;94176.94;5091840;28;20186;-81
2022/08/20 09:18:12;;;;;;;8.90;6.20;;;;;;;34.56;39.76;94176.56;5091573;28;20182;-81
2022/08/20 09:20:39;;;;;;;8.75;7.15;;;;;;;34.62;39.92;94174.56;5091595;28;20182;-81
2022/08/20 09:23:06;;;;;;;11.55;6.95;;;;;;;34.66;39.85;94175.53;5090361;28;20197;-80
2022/08/20 09:25:33;;;;;;;8.85;6.75;;;;;;;34.63;39.60;94170.81;5091438;28;20259;-80
2022/08/20 09:28:02;;;;;;;10.07;7.22;;;;;;;34.71;39.58;94175.41;5091567;28;20186;-81
2022/08/20 09:30:29;;;;;;;8.50;7.45;;;;;;;34.72;39.54;94169.03;5091622;28;20218;-81
2022/08/20 09:32:58;;;;;;;7.60;6.70;;;;;;;34.79;39.40;94169.34;5091590;28;20682;-81
2022/08/20 09:35:25;;;;;;;7.90;7.18;;;;;;;34.85;38.84;94159.41;5091328;28;20189;-81
2022/08/20 09:37:52;;;;;;;7.28;6.65;;;;;;;34.90;38.96;94162.72;5091457;28;20190;-81
2022/08/20 09:40:20;;;;;;;7.10;6.47;;;;;;;34.85;39.27;94138.16;5091250;28;20190;-81
2022/08/20 09:42:47;;;;;;;11.98;7.70;;;;;;;34.66;38.89;94152.41;5091747;28;20192;-82
2022/08/20 09:45:15;;;;;;;7.65;6.93;;;;;;;34.74;38.77;94158.84;5091456;28;20240;-82
2022/08/20 09:47:42;;;;;;;7.65;6.85;;;;;;;34.73;38.98;94159.94;5091380;28;20254;-81
2022/08/20 09:50:10;;;;;;;7.25;6.45;;;;;;;34.66;38.54;94155.06;5091164;28;20255;-81
2022/08/20 09:52:48;;;;;;;7.63;6.57;;;;;;;34.66;38.68;94157.72;5091049;28;20227;-81
2022/08/20 09:55:20;;;;;;;8.00;6.47;;;;;;;34.45;39.00;94148.63;5091178;28;20197;-81
2022/08/20 09:57:57;;;;;;;9.23;7.18;;;;;;;34.36;39.12;94151.19;5091434;28;20201;-81
2022/08/20 10:00:25;;;;;;;11.50;7.35;;;;;;;34.31;39.33;94147.88;5090762;28;20288;-81
2022/08/20 10:02:52;;;;;;;7.20;6.53;;;;;;;34.28;39.13;94143.94;5091277;28;20186;-81
2022/08/20 10:05:19;;;;;;;9.25;6.13;;;;;;;34.17;39.10;94134.66;5090702;28;20228;-82
2022/08/20 10:07:46;;;;;;;7.55;6.75;;;;;;;34.19;39.77;94151.06;5091178;28;20197;-79
2022/08/20 10:10:14;;;;;;;7.03;6.45;;;;;;;34.23;39.26;94161.88;5090455;28;20715;-82
2022/08/20 10:12:41;;;;;;;9.35;7.20;;;;;;;34.23;38.74;94157.34;5090821;28;20190;-80
2022/08/20 10:15:10;;;;;;;9.07;6.63;;;;;;;34.16;38.37;94147.16;5090630;28;20196;-81
2022/08/20 10:17:39;;;;;;;10.50;6.97;;;;;;;34.18;38.62;94142.31;5090791;28;20213;-81
2022/08/20 10:20:08;;;;;;;9.20;7.00;;;;;;;34.11;38.88;94149.09;5090580;28;20244;-81
2022/08/20 10:22:35;;;;;;;7.82;6.97;;;;;;;34.05;38.95;94137.81;5090745;28;20182;-81
2022/08/20 10:25:02;;;;;;;7.93;6.70;;;;;;;33.99;39.52;94135.59;5090154;28;20190;-79
2022/08/20 10:27:29;;;;;;;7.38;6.63;;;;;;;33.95;39.34;94130.84;5090602;28;20523;-80
2022/08/20 10:29:56;;;;;;;8.68;6.72;;;;;;;33.99;39.17;94132.94;5090089;28;20588;-80
2022/08/20 10:32:23;;;;;;;7.28;6.20;;;;;;;33.84;39.08;94136.66;5090512;28;20680;-80
2022/08/20 10:34:51;;;;;;;11.95;6.40;;;;;;;33.79;39.16;94132.25;5090641;28;20188;-80
2022/08/20 10:37:20;;;;;;;7.78;6.97;;;;;;;33.74;39.29;94132.34;5090188;28;20560;-82
2022/08/20 10:39:47;;;;;;;11.68;7.00;;;;;;;33.77;39.73;94128.34;5090410;28;20200;-81
2022/08/20 10:42:14;;;;;;;9.25;6.43;;;;;;;33.80;39.83;94127.72;5090324;28;20185;-80
2022/08/20 10:44:41;;;;;;;7.00;6.30;;;;;;;33.68;38.79;94129.03;5090117;28;20189;-81
2022/08/20 10:47:20;;;;;;;7.97;6.57;;;;;;;33.66;38.38;94102.00;5089666;28;20302;-80
2022/08/20 10:49:48;;;;;;;10.88;6.38;;;;;;;33.82;38.33;94118.41;5089914;28;20229;-81
2022/08/20 10:52:17;;;;;;;11.18;6.63;;;;;;;33.88;38.62;94111.09;5089686;28;20204;-81
2022/08/20 10:54:44;;;;;;;7.80;7.00;;;;;;;33.89;38.08;94116.09;5090083;28;20218;-82
2022/08/20 10:57:15;;;;;;;11.23;6.53;;;;;;;33.99;38.38;94109.84;5089871;28;20197;-79
2022/08/20 10:59:44;;;;;;;7.03;6.43;;;;;;;34.11;38.10;94107.44;5089799;28;20194;-79
2022/08/20 11:02:11;;;;;;;8.13;7.32;;;;;;;34.20;38.35;94102.22;5089703;28;20645;-80
2022/08/20 11:04:39;;;;;;;8.48;7.32;;;;;;;34.30;38.20;94107.28;5089611;28;20316;-80
2022/08/20 11:07:17;;;;;;;7.78;6.97;;;;;;;34.38;37.91;94103.13;5089725;28;20197;-80
2022/08/20 11:09:46;;;;;;;7.55;6.90;;;;;;;34.46;38.20;94107.72;5089532;28;20224;-80
2022/08/20 11:12:13;;;;;;;9.75;6.90;;;;;;;34.32;38.02;94067.16;5089565;28;20186;-80
2022/08/20 11:14:40;;;;;;;9.48;7.45;;;;;;;34.56;37.74;94093.44;5090063;28;20189;-80
2022/08/20 11:17:08;;;;;;;7.38;6.68;;;;;;;34.64;38.11;94104.09;5089451;28;20189;-80
2022/08/20 11:19:39;;;;;;;10.50;7.15;;;;;;;34.64;37.89;94092.69;5089956;28;20185;-80
2022/08/20 11:22:07;;;;;;;9.25;6.20;;;;;;;34.69;38.04;94087.25;5089351;28;20197;-80
2022/08/20 11:24:35;;;;;;;12.25;7.13;;;;;;;34.57;37.96;94053.28;5089440;28;20539;-80
2022/08/20 11:27:03;;;;;;;9.18;7.40;;;;;;;34.77;38.04;94077.78;5089267;28;20288;-80
2022/08/20 11:29:30;;;;;;;8.55;6.63;;;;;;;34.71;37.98;94074.44;5089421;28;20217;-81
2022/08/20 11:31:57;;;;;;;11.38;6.68;;;;;;;34.74;38.08;94075.72;5089187;28;20209;-81
2022/08/20 11:34:23;;;;;;;12.35;7.22;;;;;;;34.68;37.52;94067.09;5089305;28;20185;-81
2022/08/20 11:36:51;;;;;;;7.90;7.13;;;;;;;34.66;37.71;94062.06;5089311;28;20186;-81
2022/08/20 11:39:18;;;;;;;10.70;7.22;;;;;;;34.63;37.88;94061.91;5089112;28;20665;-81
2022/08/20 11:41:47;;;;;;;9.70;6.78;;;;;;;34.54;38.04;94048.56;5089226;28;20279;-81
2022/08/20 11:44:14;;;;;;;11.45;6.97;;;;;;;34.61;37.89;94056.13;5089185;28;20192;-80
2022/08/20 11:46:41;;;;;;;10.70;6.55;;;;;;;34.57;37.74;94055.94;5090643;28;20185;-81